Cyclone, Texas
Current Conditions -  °F | °C
As of 12:55 AM on Saturday 25 Oct 2014 (Local Time) from KT35 Reporting Station
Clear Clear  
Wind Chill: 67°   Ceiling: Unl
Heat Index: 67°   Visibility: 10mi
Dew Point: 58°   Wind: 5mph
Humidity: 75%   Direction: 170°S
Pressure: 30.13"   Gusts: NA
Location:  30.9882°N, 97.103°W
Report Text: KT35 250555Z AUTO 17004KT 10SM CLR 19/15 A3013 RMK AO2 T01920146 10247 20192 402860135
Loading
Personal Weather Stations






























Interactive Weather Map New forecast layout! Learn more

10-Day Weather Forecast

Advertisements
Track Severe Weather on mobile